Time;durP1;ratioP1;P1;durP2;ratioP2;P2;SDS_P1;SDS_P2;PMS_P1;PMS_P2;Temp;Humidity;BMP_temperature;BMP_pressure;BME280_temperature;BME280_humidity;BME280_pressure;Samples;Min_cycle;Max_cycle;Signal;HPM_P1;HPM_P2
2023/03/06 00:00:45;;;;;;;13.60;8.65;;;;;;;7.94;65.76;99253.34;5034307;28;20061;-65
2023/03/06 00:03:10;;;;;;;16.83;9.57;;;;;;;7.96;65.98;99257.47;5033851;28;20033;-64
2023/03/06 00:05:36;;;;;;;16.50;9.85;;;;;;;7.93;66.00;99259.59;5032542;28;20353;-64
2023/03/06 00:08:01;;;;;;;14.10;8.98;;;;;;;7.91;65.44;99257.13;5032015;28;20037;-63
2023/03/06 00:10:29;;;;;;;15.27;9.52;;;;;;;7.91;65.53;99256.28;5032231;28;20052;-63
2023/03/06 00:13:02;;;;;;;14.98;9.23;;;;;;;8.00;66.07;99256.19;5036377;28;20223;-64
2023/03/06 00:15:28;;;;;;;13.15;8.63;;;;;;;8.01;65.32;99257.00;5035153;28;20243;-65
2023/03/06 00:17:54;;;;;;;15.25;9.00;;;;;;;7.90;65.64;99259.91;5032309;28;20037;-64
2023/03/06 00:20:21;;;;;;;14.35;8.82;;;;;;;7.92;65.47;99265.84;5028403;28;20057;-64
2023/03/06 00:22:48;;;;;;;16.95;8.90;;;;;;;7.92;65.51;99255.31;5033142;28;20342;-64
2023/03/06 00:25:16;;;;;;;15.90;9.07;;;;;;;7.93;65.37;99268.34;5036236;28;20111;-64
2023/03/06 00:27:42;;;;;;;19.80;10.00;;;;;;;7.91;66.09;99261.56;5036139;28;20044;-65
2023/03/06 00:30:11;;;;;;;15.77;9.25;;;;;;;7.92;65.29;99271.13;5032476;28;20053;-65
2023/03/06 00:32:37;;;;;;;14.60;9.40;;;;;;;7.91;66.02;99265.03;5034957;28;20053;-64
2023/03/06 00:35:02;;;;;;;16.23;9.68;;;;;;;7.88;65.63;99275.88;5038900;28;20083;-64
2023/03/06 00:37:28;;;;;;;13.52;9.63;;;;;;;7.91;65.73;99283.47;5036185;28;20051;-64
2023/03/06 00:39:53;;;;;;;15.98;9.23;;;;;;;7.91;64.91;99280.84;5037092;28;20045;-64
2023/03/06 00:42:19;;;;;;;14.27;9.00;;;;;;;7.93;65.62;99273.59;5038980;28;20108;-65
2023/03/06 00:44:45;;;;;;;14.57;8.80;;;;;;;7.88;65.49;99269.78;5038636;28;20041;-64
2023/03/06 00:47:11;;;;;;;13.80;9.50;;;;;;;7.90;65.45;99287.09;5038597;28;20102;-64
2023/03/06 00:49:38;;;;;;;16.67;8.95;;;;;;;7.94;65.05;99277.91;5039654;28;20049;-64
2023/03/06 00:52:04;;;;;;;14.25;8.68;;;;;;;7.95;65.39;99290.09;5034509;28;20044;-63
2023/03/06 00:54:30;;;;;;;15.98;8.38;;;;;;;7.92;65.59;99286.94;5036274;28;20048;-64
2023/03/06 00:56:55;;;;;;;12.38;8.48;;;;;;;7.95;65.45;99290.09;5038661;28;20053;-65
2023/03/06 00:59:20;;;;;;;15.63;9.00;;;;;;;7.93;64.95;99292.06;5035799;28;20105;-65
2023/03/06 01:01:46;;;;;;;13.00;9.02;;;;;;;7.92;65.26;99290.41;5035476;28;20067;-64
2023/03/06 01:04:12;;;;;;;13.55;8.32;;;;;;;7.84;65.86;99293.00;5033952;28;20108;-64
2023/03/06 01:06:37;;;;;;;15.27;8.27;;;;;;;7.77;65.94;99289.31;5037647;28;20045;-64
2023/03/06 01:09:04;;;;;;;17.42;10.15;;;;;;;7.75;65.91;99283.38;5039024;28;20029;-65
2023/03/06 01:11:29;;;;;;;16.02;9.10;;;;;;;7.79;66.09;99297.06;5036476;28;20119;-64
2023/03/06 01:13:55;;;;;;;13.52;9.00;;;;;;;7.82;66.53;99294.13;5035076;28;20209;-64
2023/03/06 01:16:21;;;;;;;14.32;9.20;;;;;;;7.88;66.10;99296.97;5038848;28;20294;-64
2023/03/06 01:18:47;;;;;;;16.80;9.27;;;;;;;7.92;66.03;99297.50;5039495;28;20159;-64
2023/03/06 01:21:12;;;;;;;13.05;9.15;;;;;;;7.93;65.81;99296.50;5035485;28;20332;-64
2023/03/06 01:23:38;;;;;;;14.63;8.68;;;;;;;7.93;65.95;99292.06;5035402;28;20037;-65
2023/03/06 01:26:05;;;;;;;15.32;9.77;;;;;;;7.97;66.03;99290.75;5036530;28;20045;-64
2023/03/06 01:28:32;;;;;;;18.55;10.00;;;;;;;7.99;65.53;99294.06;5038440;28;20045;-64
2023/03/06 01:30:59;;;;;;;15.73;9.20;;;;;;;7.99;65.79;99290.59;5036580;28;20240;-64
2023/03/06 01:33:24;;;;;;;16.65;9.63;;;;;;;8.01;65.92;99296.56;5035832;28;20041;-64
2023/03/06 01:35:50;;;;;;;16.30;9.15;;;;;;;8.01;65.73;99292.09;5037515;28;20068;-64
2023/03/06 01:38:15;;;;;;;17.15;9.98;;;;;;;8.05;64.73;99302.34;5036216;28;20068;-64
2023/03/06 01:40:41;;;;;;;17.20;9.20;;;;;;;7.99;64.85;99301.97;5037358;28;20078;-65
2023/03/06 01:43:10;;;;;;;13.38;8.93;;;;;;;8.05;64.46;99302.34;5033984;28;20231;-64
2023/03/06 01:45:35;;;;;;;15.20;8.88;;;;;;;8.12;64.50;99306.81;5035301;28;20041;-63
2023/03/06 01:48:01;;;;;;;14.23;9.05;;;;;;;8.06;64.05;99304.81;5034666;28;20087;-64
2023/03/06 01:50:27;;;;;;;16.90;9.55;;;;;;;8.03;63.63;99299.84;5034428;28;20045;-64
2023/03/06 01:52:58;;;;;;;15.45;9.15;;;;;;;8.08;63.95;99310.75;5038597;28;20249;-65
2023/03/06 01:55:33;;;;;;;15.73;9.32;;;;;;;8.05;63.76;99303.16;5037378;28;20037;-65
2023/03/06 01:58:02;;;;;;;14.30;8.05;;;;;;;8.04;63.95;99305.97;5038737;28;20143;-64
2023/03/06 02:00:28;;;;;;;15.25;9.00;;;;;;;8.06;64.21;99309.25;5036232;28;20049;-64
2023/03/06 02:03:13;;;;;;;14.57;8.75;;;;;;;8.02;63.76;99306.13;5034795;28;20291;-64
2023/03/06 02:05:40;;;;;;;13.60;8.48;;;;;;;7.94;63.14;99313.97;5033155;28;20049;-65
2023/03/06 02:08:06;;;;;;;21.33;9.20;;;;;;;7.93;63.32;99315.78;5034150;28;20056;-64
2023/03/06 02:10:32;;;;;;;16.35;9.57;;;;;;;7.93;64.21;99315.78;5034498;28;20041;-64
2023/03/06 02:12:58;;;;;;;11.85;8.25;;;;;;;7.95;63.99;99320.91;5033641;28;20096;-64
2023/03/06 02:15:26;;;;;;;16.55;9.07;;;;;;;7.88;64.45;99320.69;5035954;28;20236;-64
2023/03/06 02:17:51;;;;;;;16.05;10.00;;;;;;;7.81;64.91;99318.84;5037807;28;20331;-65
2023/03/06 02:20:35;;;;;;;18.40;9.68;;;;;;;7.89;65.50;99326.78;5036807;28;20096;-64
2023/03/06 02:23:11;;;;;;;17.33;9.13;;;;;;;7.91;65.29;99324.84;5036328;28;20049;-64
2023/03/06 02:25:36;;;;;;;14.27;8.65;;;;;;;7.84;64.35;99324.63;5038003;28;20064;-64
2023/03/06 02:28:04;;;;;;;15.68;9.38;;;;;;;7.67;65.34;99330.75;5034503;28;20025;-64
2023/03/06 02:30:30;;;;;;;15.30;9.10;;;;;;;7.64;65.56;99320.53;5035001;28;20090;-65
2023/03/06 02:32:57;;;;;;;15.73;9.18;;;;;;;7.59;65.51;99328.06;5035409;28;20442;-64
2023/03/06 02:35:29;;;;;;;14.18;9.07;;;;;;;7.51;65.27;99322.75;5034551;28;20034;-64
2023/03/06 02:37:58;;;;;;;16.35;10.55;;;;;;;7.47;65.57;99330.13;5032883;28;20043;-64
2023/03/06 02:40:24;;;;;;;16.23;9.35;;;;;;;7.50;65.96;99329.81;5036239;28;20055;-64
2023/03/06 02:42:55;;;;;;;13.70;9.70;;;;;;;7.43;65.96;99326.13;5036984;28;20037;-64
2023/03/06 02:45:30;;;;;;;15.20;9.60;;;;;;;7.43;67.03;99327.94;5035127;28;20259;-65
2023/03/06 02:47:56;;;;;;;14.30;9.35;;;;;;;7.53;66.43;99339.22;5033180;28;20063;-65
2023/03/06 02:50:21;;;;;;;15.63;9.32;;;;;;;7.59;66.38;99331.53;5034658;28;20354;-63
2023/03/06 02:52:47;;;;;;;18.65;10.88;;;;;;;7.61;66.41;99344.56;5037797;28;20040;-63
2023/03/06 02:55:13;;;;;;;22.30;11.57;;;;;;;7.58;66.42;99339.59;5036075;28;20037;-63
2023/03/06 02:57:38;;;;;;;25.17;12.32;;;;;;;7.53;65.66;99337.41;5033120;28;20041;-63
2023/03/06 03:00:05;;;;;;;18.80;11.48;;;;;;;7.55;65.64;99339.88;5034718;28;20045;-64
2023/03/06 03:02:31;;;;;;;18.55;10.88;;;;;;;7.53;65.70;99347.13;5034175;28;20045;-63
2023/03/06 03:04:56;;;;;;;18.85;10.57;;;;;;;7.67;65.26;99342.13;5033054;28;20045;-63
2023/03/06 03:07:22;;;;;;;18.77;10.52;;;;;;;7.66;65.46;99339.66;5030674;28;20033;-63
2023/03/06 03:09:47;;;;;;;25.00;11.70;;;;;;;7.58;66.31;99342.22;5031609;28;20075;-63
2023/03/06 03:12:13;;;;;;;14.48;9.00;;;;;;;7.51;66.42;99347.28;5034796;28;20339;-63
2023/03/06 03:14:38;;;;;;;14.15;9.20;;;;;;;7.52;66.72;99353.38;5033446;28;20400;-65
2023/03/06 03:17:04;;;;;;;14.05;9.20;;;;;;;7.42;66.78;99348.19;5036669;28;20037;-64
2023/03/06 03:19:30;;;;;;;18.13;9.65;;;;;;;7.41;66.74;99351.78;5035323;28;20042;-63
2023/03/06 03:21:55;;;;;;;16.50;9.38;;;;;;;7.45;66.59;99349.69;5033658;28;20076;-63
2023/03/06 03:24:21;;;;;;;14.90;9.73;;;;;;;7.39;67.09;99345.03;5031725;28;20045;-63
2023/03/06 03:26:46;;;;;;;19.58;11.68;;;;;;;7.39;67.49;99343.22;5033937;28;20053;-63
2023/03/06 03:29:12;;;;;;;19.55;11.18;;;;;;;7.36;67.08;99338.25;5035612;28;20041;-64
2023/03/06 03:31:37;;;;;;;16.85;9.88;;;;;;;7.35;67.24;99333.97;5036775;28;20041;-64
2023/03/06 03:34:03;;;;;;;19.58;10.50;;;;;;;7.39;67.69;99332.69;5033986;28;20033;-64
2023/03/06 03:36:28;;;;;;;17.80;10.85;;;;;;;7.45;67.37;99345.25;5032478;28;20049;-64
2023/03/06 03:38:54;;;;;;;16.85;10.23;;;;;;;7.44;66.51;99343.59;5031906;28;20060;-63
2023/03/06 03:41:19;;;;;;;19.88;10.52;;;;;;;7.30;66.80;99347.59;5034068;28;20110;-64
2023/03/06 03:43:45;;;;;;;20.65;11.13;;;;;;;7.26;67.66;99342.75;5036101;28;20049;-63
2023/03/06 03:46:10;;;;;;;16.63;10.40;;;;;;;7.30;67.63;99344.13;5035205;28;20021;-63
2023/03/06 03:48:36;;;;;;;20.27;12.30;;;;;;;7.36;67.15;99341.72;5031709;28;20347;-63
2023/03/06 03:51:10;;;;;;;16.08;10.43;;;;;;;7.26;67.45;99332.22;5032601;28;20347;-64
2023/03/06 03:53:35;;;;;;;;;;;;;;;7.24;67.81;99339.44;5033885;28;20061;-64
2023/03/06 03:56:02;;;;;;;21.92;11.35;;;;;;;7.22;67.38;99336.13;5032600;28;19921;-63
2023/03/06 03:58:28;;;;;;;20.85;11.70;;;;;;;7.17;67.21;99341.00;5035935;28;20068;-63
2023/03/06 04:00:53;;;;;;;18.73;11.35;;;;;;;7.29;67.12;99339.84;5034371;28;20228;-63
2023/03/06 04:03:19;;;;;;;20.15;11.40;;;;;;;7.36;67.46;99341.72;5034557;28;20030;-64
2023/03/06 04:05:44;;;;;;;19.33;11.32;;;;;;;7.35;66.71;99341.88;5033408;28;20171;-64
2023/03/06 04:08:10;;;;;;;18.08;11.30;;;;;;;7.20;67.25;99344.16;5035337;28;20052;-63
2023/03/06 04:10:38;;;;;;;19.88;11.25;;;;;;;7.02;67.64;99346.78;5036852;28;20057;-63
2023/03/06 04:13:04;;;;;;;17.42;9.98;;;;;;;6.96;67.59;99349.19;5032468;28;20983;-63
2023/03/06 04:15:30;;;;;;;18.30;10.73;;;;;;;6.99;67.22;99356.78;5038031;28;20037;-63
2023/03/06 04:17:56;;;;;;;20.67;12.45;;;;;;;6.97;67.44;99359.56;5037194;28;20053;-63
2023/03/06 04:20:22;;;;;;;20.70;12.63;;;;;;;6.93;67.36;99360.84;5037271;28;20052;-63
2023/03/06 04:22:47;;;;;;;20.92;12.50;;;;;;;6.94;68.03;99362.50;5036359;28;20275;-64
2023/03/06 04:25:13;;;;;;;23.20;12.05;;;;;;;6.91;68.43;99364.59;5035664;28;20391;-64
2023/03/06 04:27:38;;;;;;;20.98;11.93;;;;;;;6.85;68.23;99359.94;5037489;28;20045;-63
2023/03/06 04:30:06;;;;;;;20.23;12.05;;;;;;;6.81;68.70;99374.34;5031407;28;20401;-63
2023/03/06 04:32:32;;;;;;;19.20;12.00;;;;;;;6.76;68.89;99371.34;5036492;28;20181;-63
2023/03/06 04:34:57;;;;;;;19.40;11.35;;;;;;;6.77;68.82;99370.38;5036637;28;20037;-64
2023/03/06 04:37:24;;;;;;;19.33;11.73;;;;;;;6.75;69.13;99375.78;5035446;28;20040;-64
2023/03/06 04:39:50;;;;;;;19.65;12.00;;;;;;;6.82;69.54;99371.56;5036092;28;20288;-63
2023/03/06 04:42:17;;;;;;;22.63;11.27;;;;;;;6.88;69.56;99380.69;5036589;28;20030;-63
2023/03/06 04:44:43;;;;;;;22.05;12.63;;;;;;;6.92;69.52;99379.41;5035665;28;20049;-63
2023/03/06 04:47:09;;;;;;;20.30;12.13;;;;;;;6.86;69.22;99385.28;5035800;28;20037;-63
2023/03/06 04:49:35;;;;;;;19.65;11.68;;;;;;;6.87;69.67;99387.75;5036043;28;20099;-64
2023/03/06 04:52:00;;;;;;;25.27;13.75;;;;;;;6.85;69.08;99384.44;5037718;28;20045;-64
2023/03/06 04:54:26;;;;;;;22.30;12.38;;;;;;;6.88;68.87;99388.59;5039948;28;20072;-63
2023/03/06 04:56:51;;;;;;;21.27;11.15;;;;;;;6.83;68.52;99396.09;5035861;28;20037;-63
2023/03/06 04:59:17;;;;;;;20.90;10.65;;;;;;;6.82;69.28;99397.91;5035875;28;20047;-63
2023/03/06 05:01:42;;;;;;;19.80;11.07;;;;;;;6.91;69.04;99402.28;5036846;28;20226;-64
2023/03/06 05:04:08;;;;;;;18.70;11.32;;;;;;;6.95;68.67;99397.53;5037576;28;20076;-64
2023/03/06 05:06:33;;;;;;;17.95;10.93;;;;;;;6.98;68.87;99403.34;5036029;28;20045;-63
2023/03/06 05:08:59;;;;;;;18.15;11.90;;;;;;;7.06;68.78;99410.50;5034049;28;20116;-63
2023/03/06 05:11:24;;;;;;;20.55;12.32;;;;;;;7.15;68.78;99412.25;5035768;28;20049;-64
2023/03/06 05:13:50;;;;;;;18.85;11.20;;;;;;;7.20;67.64;99417.91;5037787;28;20041;-64
2023/03/06 05:16:16;;;;;;;18.70;11.20;;;;;;;7.28;68.06;99417.16;5036382;28;20021;-63
2023/03/06 05:18:41;;;;;;;19.20;11.32;;;;;;;7.29;68.19;99418.84;5033495;28;20234;-63
2023/03/06 05:21:07;;;;;;;20.15;10.82;;;;;;;7.28;67.76;99422.44;5039503;28;20244;-63
2023/03/06 05:23:35;;;;;;;19.38;11.02;;;;;;;7.26;68.44;99425.22;5045047;28;20052;-64
2023/03/06 05:26:06;;;;;;;17.65;11.10;;;;;;;7.21;68.35;99424.81;5042716;28;20033;-64
2023/03/06 05:28:31;;;;;;;21.95;12.27;;;;;;;7.13;69.10;99427.38;5052525;28;20210;-63
2023/03/06 05:30:57;;;;;;;21.92;12.98;;;;;;;6.99;69.32;99422.59;5059391;28;20043;-63
2023/03/06 05:33:22;;;;;;;21.02;12.52;;;;;;;7.01;68.90;99429.38;5060092;28;20037;-64
2023/03/06 05:35:49;;;;;;;24.45;13.77;;;;;;;7.19;69.00;99444.38;5059371;28;20299;-64
2023/03/06 05:38:15;;;;;;;30.23;15.05;;;;;;;7.13;69.52;99440.53;5060228;28;20437;-63
2023/03/06 05:40:41;;;;;;;26.05;14.68;;;;;;;7.07;69.68;99441.13;5059725;28;20045;-63
2023/03/06 05:43:07;;;;;;;25.92;14.60;;;;;;;7.03;69.83;99443.22;5059804;28;20025;-64
2023/03/06 05:45:34;;;;;;;21.98;13.80;;;;;;;7.10;69.75;99440.81;5059724;28;20339;-64
2023/03/06 05:47:59;;;;;;;26.60;14.20;;;;;;;7.12;69.39;99457.31;5059819;28;20055;-63
2023/03/06 05:50:25;;;;;;;27.58;14.93;;;;;;;7.15;69.29;99451.75;5059693;28;20338;-63
2023/03/06 05:52:50;;;;;;;25.90;14.77;;;;;;;7.27;69.01;99465.53;5059713;28;20062;-63
2023/03/06 05:55:18;;;;;;;26.30;14.50;;;;;;;7.26;69.92;99462.06;5060049;28;20029;-63
2023/03/06 05:57:43;;;;;;;31.10;15.70;;;;;;;7.33;68.87;99464.97;5059671;28;20355;-64
2023/03/06 06:00:10;;;;;;;28.08;14.75;;;;;;;7.39;69.89;99471.47;5059522;28;20060;-65
2023/03/06 06:02:35;;;;;;;24.83;14.38;;;;;;;7.48;69.38;99471.41;5059775;28;20211;-63
2023/03/06 06:05:02;;;;;;;23.20;12.68;;;;;;;7.61;69.05;99474.50;5059577;28;20107;-64
2023/03/06 06:07:28;;;;;;;17.23;11.13;;;;;;;7.75;67.86;99480.22;5059049;28;20087;-63
2023/03/06 06:09:53;;;;;;;18.50;10.68;;;;;;;7.88;67.48;99478.03;5059729;28;20354;-64
2023/03/06 06:12:19;;;;;;;15.23;10.23;;;;;;;8.11;66.31;99475.75;5059415;28;20068;-64
2023/03/06 06:14:44;;;;;;;17.15;9.68;;;;;;;8.32;64.98;99479.75;5059338;28;20124;-64
2023/03/06 06:17:11;;;;;;;19.83;10.95;;;;;;;8.51;64.12;99488.47;5058989;28;20032;-64
2023/03/06 06:19:37;;;;;;;16.65;10.30;;;;;;;8.70;63.78;99490.91;5051360;28;20037;-63
2023/03/06 06:22:03;;;;;;;18.85;11.25;;;;;;;8.88;64.12;99489.03;5038338;28;20048;-63
2023/03/06 06:24:29;;;;;;;19.83;11.40;;;;;;;8.99;62.81;99485.28;5036373;28;20223;-64
2023/03/06 06:26:56;;;;;;;19.88;11.10;;;;;;;9.13;63.07;99487.31;5034587;28;20041;-65
2023/03/06 06:29:23;;;;;;;19.08;11.02;;;;;;;9.39;62.80;99492.56;5036346;28;20294;-65
2023/03/06 06:31:50;;;;;;;16.88;10.20;;;;;;;9.57;61.78;99493.28;5035538;28;20201;-64
2023/03/06 06:34:16;;;;;;;16.85;9.63;;;;;;;9.60;60.97;99490.31;5035426;28;20282;-64
2023/03/06 06:36:41;;;;;;;16.80;10.20;;;;;;;9.67;59.04;99500.22;5036819;28;20037;-64
2023/03/06 06:39:08;;;;;;;16.60;9.65;;;;;;;9.78;58.91;99498.09;5037719;28;20033;-64
2023/03/06 06:41:34;;;;;;;17.30;10.23;;;;;;;9.86;57.97;99495.47;5033443;28;20303;-65
2023/03/06 06:44:03;;;;;;;15.10;10.27;;;;;;;10.00;57.91;99501.94;5032732;28;20037;-64
2023/03/06 06:46:28;;;;;;;15.55;10.25;;;;;;;10.16;58.02;99507.22;5038666;28;20114;-64
2023/03/06 06:48:54;;;;;;;14.85;10.18;;;;;;;10.21;57.79;99507.59;5038830;28;20355;-63
2023/03/06 06:51:21;;;;;;;17.55;9.13;;;;;;;10.16;59.16;99494.00;5038512;28;20095;-64
2023/03/06 06:53:47;;;;;;;17.95;10.68;;;;;;;10.29;57.80;99501.47;5039212;28;20181;-64
2023/03/06 06:56:12;;;;;;;16.27;10.63;;;;;;;10.27;56.85;99507.91;5038670;28;20029;-64
2023/03/06 06:58:38;;;;;;;16.63;10.43;;;;;;;10.40;56.43;99509.09;5038843;28;20045;-64
2023/03/06 07:01:08;;;;;;;17.20;10.50;;;;;;;10.57;56.09;99504.63;5038778;28;20532;-65
2023/03/06 07:03:33;;;;;;;16.85;9.30;;;;;;;10.67;55.70;99507.09;5038432;28;20209;-64
2023/03/06 07:05:59;;;;;;;15.90;9.15;;;;;;;10.81;55.32;99503.75;5038116;28;20045;-64
2023/03/06 07:08:25;;;;;;;15.85;9.80;;;;;;;10.95;54.96;99500.38;5038037;28;20037;-64
2023/03/06 07:10:50;;;;;;;13.43;9.10;;;;;;;11.02;54.62;99503.19;5037487;28;20346;-64
2023/03/06 07:13:16;;;;;;;14.95;9.25;;;;;;;11.05;54.15;99502.84;5037616;28;20037;-64
2023/03/06 07:15:41;;;;;;;17.00;8.57;;;;;;;11.00;53.91;99506.00;5036825;28;20037;-65
2023/03/06 07:18:06;;;;;;;15.25;8.88;;;;;;;11.20;54.26;99514.38;5037534;28;20294;-64
2023/03/06 07:20:32;;;;;;;16.45;9.80;;;;;;;11.14;53.10;99510.59;5037347;28;20041;-64
2023/03/06 07:22:57;;;;;;;12.88;8.40;;;;;;;11.27;53.53;99514.53;5038809;28;20026;-64
2023/03/06 07:25:23;;;;;;;15.15;8.38;;;;;;;11.32;53.08;99515.66;5037568;28;20033;-63
2023/03/06 07:27:54;;;;;;;13.48;8.13;;;;;;;11.41;52.62;99511.13;5037799;28;20037;-64
2023/03/06 07:30:23;;;;;;;13.07;9.18;;;;;;;11.52;53.01;99521.41;5036883;28;20052;-64
2023/03/06 07:32:51;;;;;;;15.32;7.78;;;;;;;11.67;49.93;99518.81;5036450;28;20061;-65
2023/03/06 07:35:17;;;;;;;14.98;8.65;;;;;;;11.86;48.74;99525.53;5035967;28;20072;-64
2023/03/06 07:37:42;;;;;;;13.90;9.10;;;;;;;12.01;48.06;99524.59;5032030;28;20250;-64
2023/03/06 07:40:09;;;;;;;10.77;8.10;;;;;;;12.03;48.08;99524.44;5031690;28;20048;-64
2023/03/06 07:42:35;;;;;;;14.32;8.80;;;;;;;12.20;46.05;99530.44;5031068;28;20022;-64
2023/03/06 07:45:03;;;;;;;12.15;8.00;;;;;;;12.14;45.47;99524.84;5030975;28;20037;-64
2023/03/06 07:47:28;;;;;;;13.55;8.45;;;;;;;12.21;45.22;99527.63;5031794;28;20108;-64
2023/03/06 07:49:55;;;;;;;13.52;8.27;;;;;;;12.35;46.11;99526.00;5031020;28;20041;-65
2023/03/06 07:52:21;;;;;;;14.63;7.47;;;;;;;12.36;44.00;99532.97;5031782;28;20037;-65
2023/03/06 07:54:47;;;;;;;13.38;7.75;;;;;;;12.53;43.61;99536.34;5033372;28;20048;-64
2023/03/06 07:57:13;;;;;;;11.90;7.10;;;;;;;12.65;44.21;99527.75;5035201;28;20037;-64
2023/03/06 07:59:38;;;;;;;13.82;8.82;;;;;;;12.75;44.90;99533.63;5033863;28;20076;-64
2023/03/06 08:02:04;;;;;;;14.48;10.15;;;;;;;12.84;44.65;99534.38;5034745;28;20041;-64
2023/03/06 08:04:29;;;;;;;15.07;8.48;;;;;;;12.89;44.07;99534.66;5034274;28;20037;-64
2023/03/06 08:06:58;;;;;;;15.05;8.32;;;;;;;12.95;44.19;99544.56;5032301;28;20052;-64
2023/03/06 08:09:24;;;;;;;14.35;8.85;;;;;;;13.01;43.50;99551.81;5034582;28;20067;-64
2023/03/06 08:11:49;;;;;;;12.90;9.07;;;;;;;13.11;43.47;99541.72;5034517;28;20139;-64
2023/03/06 08:14:15;;;;;;;16.52;9.35;;;;;;;13.17;43.32;99539.38;5034765;28;20041;-64
2023/03/06 08:16:40;;;;;;;17.73;9.18;;;;;;;13.33;42.17;99531.22;5033584;28;20052;-64
2023/03/06 08:19:05;;;;;;;13.95;8.55;;;;;;;13.20;42.80;99539.00;5034496;28;20046;-64
2023/03/06 08:21:31;;;;;;;15.82;9.93;;;;;;;13.46;43.38;99535.88;5034072;28;20251;-65
2023/03/06 08:23:57;;;;;;;15.60;9.75;;;;;;;13.57;43.73;99533.59;5035265;28;20916;-64
2023/03/06 08:26:25;;;;;;;12.77;9.32;;;;;;;13.60;43.37;99535.06;5034855;28;20100;-64
2023/03/06 08:28:52;;;;;;;14.77;8.27;;;;;;;13.53;42.66;99542.97;5035075;28;20038;-64
2023/03/06 08:31:39;;;;;;;15.35;9.18;;;;;;;13.42;42.79;99530.94;5035264;28;20105;-64
2023/03/06 08:34:07;;;;;;;12.52;8.52;;;;;;;13.37;42.16;99524.50;5033946;28;20029;-64
2023/03/06 08:36:33;;;;;;;14.07;9.15;;;;;;;13.46;43.10;99522.56;5034907;28;20387;-64
2023/03/06 08:38:59;;;;;;;15.95;9.48;;;;;;;13.51;41.92;99514.88;5036019;28;20037;-64
2023/03/06 08:41:25;;;;;;;15.43;9.10;;;;;;;13.61;42.31;99524.22;5035091;28;20044;-64
2023/03/06 08:43:51;;;;;;;12.40;9.25;;;;;;;13.73;41.74;99514.75;5034879;28;20041;-64
2023/03/06 08:46:17;;;;;;;16.55;9.60;;;;;;;13.95;42.32;99512.94;5034481;28;20031;-64
2023/03/06 08:48:43;;;;;;;12.57;9.32;;;;;;;14.01;41.29;99520.16;5034752;28;20233;-64
2023/03/06 08:51:09;;;;;;;14.63;9.88;;;;;;;14.18;40.91;99514.59;5035296;28;20072;-65
2023/03/06 08:53:35;;;;;;;12.00;8.75;;;;;;;14.15;40.49;99517.63;5037293;28;20121;-65
2023/03/06 08:56:01;;;;;;;15.50;9.43;;;;;;;14.21;41.69;99514.19;5038723;28;20044;-64
2023/03/06 08:58:26;;;;;;;15.07;10.48;;;;;;;14.27;40.87;99513.44;5034753;28;20229;-64
2023/03/06 09:00:52;;;;;;;12.85;9.77;;;;;;;14.30;41.15;99513.06;5035399;28;20110;-64
2023/03/06 09:03:18;;;;;;;16.85;10.63;;;;;;;14.39;39.34;99507.41;5036863;28;20033;-64
2023/03/06 09:05:44;;;;;;;16.58;9.77;;;;;;;14.46;39.86;99501.34;5038644;28;20347;-64
2023/03/06 09:08:09;;;;;;;16.15;9.88;;;;;;;14.39;39.84;99493.25;5033744;28;20332;-64
2023/03/06 09:10:34;;;;;;;21.52;12.80;;;;;;;14.51;39.89;99507.72;5036026;28;20041;-64
2023/03/06 09:13:00;;;;;;;15.57;10.40;;;;;;;14.55;40.00;99498.34;5033801;28;20032;-64
2023/03/06 09:15:25;;;;;;;14.90;10.38;;;;;;;14.73;39.43;99502.38;5034590;28;20044;-64
2023/03/06 09:17:52;;;;;;;15.13;10.77;;;;;;;14.76;39.92;99486.00;5038074;28;20048;-65
2023/03/06 09:20:18;;;;;;;13.57;9.35;;;;;;;14.72;39.92;99482.91;5036087;28;20259;-64
2023/03/06 09:22:46;;;;;;;16.70;10.10;;;;;;;14.61;39.47;99486.94;5034186;28;20029;-64
2023/03/06 09:25:13;;;;;;;15.65;9.60;;;;;;;14.63;39.52;99487.56;5032834;28;20033;-64
2023/03/06 09:27:39;;;;;;;15.93;10.35;;;;;;;14.39;39.88;99488.75;5034790;28;20033;-64
2023/03/06 09:30:06;;;;;;;15.52;10.68;;;;;;;14.28;40.67;99491.94;5034790;28;20060;-64
2023/03/06 09:32:31;;;;;;;14.60;10.52;;;;;;;13.81;41.85;99486.38;5035119;28;20492;-64
2023/03/06 09:34:57;;;;;;;17.08;9.77;;;;;;;13.93;43.02;99475.03;5040433;28;20030;-64
2023/03/06 09:37:23;;;;;;;17.92;11.60;;;;;;;13.52;41.80;99493.41;5039352;28;20052;-64
2023/03/06 09:39:48;;;;;;;15.60;10.18;;;;;;;13.33;41.92;99494.81;5039595;28;20041;-65
2023/03/06 09:42:20;;;;;;;19.30;10.65;;;;;;;13.71;41.17;99489.34;5040261;28;20076;-65
2023/03/06 09:44:51;;;;;;;16.60;10.57;;;;;;;13.49;42.31;99491.09;5040457;28;20037;-64
2023/03/06 09:47:34;;;;;;;15.27;10.48;;;;;;;13.62;41.92;99490.47;5039863;28;20308;-64
2023/03/06 09:50:38;;;;;;;20.38;11.20;;;;;;;13.68;43.18;99477.22;5039796;28;20037;-64
2023/03/06 09:53:41;;;;;;;17.45;10.00;;;;;;;13.24;44.58;99474.66;5039941;28;20041;-64
2023/03/06 09:56:19;;;;;;;19.13;12.20;;;;;;;13.35;46.08;99468.03;5039712;28;20339;-64
2023/03/06 09:58:50;;;;;;;18.20;12.35;;;;;;;12.74;48.14;99478.03;5039855;28;20052;-64
2023/03/06 10:01:20;;;;;;;19.27;11.13;;;;;;;12.57;46.18;99471.25;5039704;28;20025;-64
2023/03/06 10:03:53;;;;;;;21.10;11.63;;;;;;;12.75;45.97;99461.91;5038990;28;20041;-64
2023/03/06 10:06:29;;;;;;;17.92;11.63;;;;;;;13.07;45.31;99468.69;5039200;28;20041;-64
2023/03/06 10:09:00;;;;;;;18.90;11.07;;;;;;;13.16;44.80;99473.91;5039461;28;20073;-64
2023/03/06 10:11:46;;;;;;;18.13;11.07;;;;;;;13.05;46.82;99467.22;5039072;28;20037;-65
2023/03/06 10:14:36;;;;;;;19.92;12.10;;;;;;;13.00;44.29;99459.78;5040107;28;20065;-65
2023/03/06 10:17:02;;;;;;;16.50;10.35;;;;;;;12.90;47.20;99463.75;5030184;28;20125;-64
2023/03/06 10:19:35;;;;;;;19.00;10.48;;;;;;;12.84;45.16;99464.47;5039591;28;20041;-64
2023/03/06 10:22:09;;;;;;;18.88;11.13;;;;;;;12.95;44.73;99461.34;5039542;28;20316;-64
2023/03/06 10:24:35;;;;;;;16.77;10.50;;;;;;;13.06;44.19;99458.22;5039750;28;20049;-64
2023/03/06 10:27:00;;;;;;;16.00;10.43;;;;;;;13.14;44.31;99457.31;5039797;28;20783;-64
2023/03/06 10:29:44;;;;;;;18.55;10.80;;;;;;;12.89;43.41;99454.13;5039456;28;20061;-64
2023/03/06 10:32:45;;;;;;;16.92;10.15;;;;;;;13.02;43.92;99451.63;5035290;28;20037;-64
2023/03/06 10:35:17;;;;;;;16.70;10.50;;;;;;;13.18;44.07;99447.97;5033504;28;20045;-64
2023/03/06 10:37:42;;;;;;;13.15;9.05;;;;;;;13.10;42.65;99447.03;5037423;28;20340;-64
2023/03/06 10:40:34;;;;;;;15.55;9.18;;;;;;;13.21;43.39;99439.63;5033355;28;20041;-64
2023/03/06 10:42:59;;;;;;;15.30;9.43;;;;;;;13.44;44.64;99435.00;5033571;28;20034;-65
2023/03/06 10:45:24;;;;;;;12.10;8.40;;;;;;;13.55;42.58;99429.22;5032747;28;20045;-65
2023/03/06 10:48:09;;;;;;;14.23;8.68;;;;;;;13.70;44.76;99429.16;5038556;28;20215;-64
2023/03/06 10:50:35;;;;;;;13.75;8.40;;;;;;;13.89;42.41;99427.69;5039222;28;20037;-64
2023/03/06 10:53:06;;;;;;;14.90;9.15;;;;;;;14.00;40.82;99424.50;5039113;28;20362;-64
2023/03/06 10:55:36;;;;;;;14.57;8.90;;;;;;;14.05;41.65;99417.59;5038999;28;20037;-64
2023/03/06 10:58:21;;;;;;;11.60;7.90;;;;;;;13.91;41.16;99405.19;5039391;28;20044;-64
2023/03/06 11:01:18;;;;;;;12.07;7.30;;;;;;;14.02;38.81;99409.19;5039501;28;20096;-64
2023/03/06 11:03:44;;;;;;;12.45;7.70;;;;;;;14.15;38.66;99400.47;5038364;28;20124;-64
2023/03/06 11:06:14;;;;;;;12.77;7.78;;;;;;;14.27;40.03;99405.06;5038542;28;20096;-64
2023/03/06 11:08:42;;;;;;;13.73;8.02;;;;;;;14.26;38.84;99383.97;5038277;28;20053;-64
2023/03/06 11:11:22;;;;;;;13.75;8.57;;;;;;;14.37;38.71;99381.56;5038351;28;20033;-64
2023/03/06 11:13:56;;;;;;;12.40;8.25;;;;;;;13.97;41.26;99377.81;5038111;28;20092;-65
2023/03/06 11:16:29;;;;;;;14.77;8.68;;;;;;;13.84;42.42;99379.53;5038047;28;20025;-65
2023/03/06 11:19:04;;;;;;;13.52;8.80;;;;;;;13.88;39.78;99376.31;5024999;28;20033;-64
2023/03/06 11:21:35;;;;;;;11.50;7.47;;;;;;;13.96;38.96;99376.16;5038274;28;20044;-64
2023/03/06 11:24:15;;;;;;;12.27;7.75;;;;;;;13.76;43.28;99377.00;5038697;28;20037;-64
2023/03/06 11:26:47;;;;;;;15.55;8.30;;;;;;;13.71;42.61;99364.28;5038796;28;20244;-64
2023/03/06 11:29:37;;;;;;;10.70;8.10;;;;;;;13.84;41.24;99369.72;5038198;28;20323;-64